Time;durP1;ratioP1;P1;durP2;ratioP2;P2;SDS_P1;SDS_P2;PMS_P1;PMS_P2;Temp;Humidity;BMP_temperature;BMP_pressure;BME280_temperature;BME280_humidity;BME280_pressure;Samples;Min_cycle;Max_cycle;Signal;HPM_P1;HPM_P2
2022/06/25 00:01:56;;;;;;;6.47;3.78;;;18.70;99.90;;;;;;5070279;28;20037;-81
2022/06/25 00:07:06;;;;;;;4.82;3.67;;;18.60;99.90;;;;;;5074697;28;20059;-81
2022/06/25 00:09:31;;;;;;;7.28;3.80;;;18.60;99.90;;;;;;5072220;28;20029;-82
2022/06/25 00:14:43;;;;;;;9.25;3.17;;;18.50;99.90;;;;;;5062684;28;20036;-81
2022/06/25 00:17:10;;;;;;;6.63;3.72;;;18.50;99.90;;;;;;5075064;28;20021;-82
2022/06/25 00:19:36;;;;;;;11.18;3.83;;;18.40;99.90;;;;;;5071319;28;20028;-81
2022/06/25 00:22:02;;;;;;;7.40;3.70;;;18.40;99.90;;;;;;5074396;28;20030;-82
2022/06/25 00:24:27;;;;;;;4.60;3.55;;;18.40;99.90;;;;;;5069495;28;20028;-81
2022/06/25 00:26:55;;;;;;;6.68;3.17;;;18.30;99.90;;;;;;5072952;28;20070;-81
2022/06/25 00:29:20;;;;;;;5.80;3.53;;;18.30;99.90;;;;;;5067634;28;20107;-81
2022/06/25 00:31:46;;;;;;;5.43;3.15;;;18.30;99.90;;;;;;5073597;28;20123;-81
2022/06/25 00:34:11;;;;;;;6.13;3.35;;;18.20;99.90;;;;;;5067552;28;20028;-81
2022/06/25 00:36:37;;;;;;;8.95;3.75;;;18.20;99.90;;;;;;5074426;28;20028;-81
2022/06/25 00:39:03;;;;;;;5.07;4.00;;;18.20;99.90;;;;;;5072902;28;20033;-81
2022/06/25 00:41:29;;;;;;;6.20;3.70;;;18.20;99.90;;;;;;5072374;28;20032;-81
2022/06/25 00:43:54;;;;;;;5.50;3.60;;;18.10;99.90;;;;;;5066833;28;20020;-81
2022/06/25 00:46:20;;;;;;;6.85;3.45;;;18.10;99.90;;;;;;5070182;28;20060;-81
2022/06/25 00:48:45;;;;;;;9.27;3.92;;;18.10;99.90;;;;;;5071558;28;20018;-81
2022/06/25 00:51:14;;;;;;;7.28;4.43;;;18.10;99.90;;;;;;5060721;28;20128;-81
2022/06/25 00:53:44;;;;;;;6.88;3.92;;;18.00;99.90;;;;;;5072505;28;20047;-81
2022/06/25 00:56:12;;;;;;;4.85;3.55;;;18.00;99.90;;;;;;5074434;28;20032;-81
2022/06/25 00:58:40;;;;;;;17.38;4.65;;;18.00;99.90;;;;;;5071442;28;20024;-81
2022/06/25 01:01:09;;;;;;;8.93;4.72;;;18.00;99.90;;;;;;5069312;28;20032;-81
2022/06/25 01:03:36;;;;;;;15.18;5.55;;;18.00;99.90;;;;;;5071042;28;20024;-81
2022/06/25 01:06:03;;;;;;;12.68;4.85;;;18.00;99.90;;;;;;5068815;28;20025;-81
2022/06/25 01:08:28;;;;;;;4.75;4.18;;;18.00;99.90;;;;;;5069108;28;20041;-81
2022/06/25 01:10:54;;;;;;;8.35;4.90;;;18.10;99.90;;;;;;5070283;28;20931;-81
2022/06/25 01:13:23;;;;;;;7.40;3.92;;;18.20;99.90;;;;;;5070824;28;20021;-81
2022/06/25 01:15:49;;;;;;;8.43;4.32;;;18.30;99.90;;;;;;5053704;28;20108;-81
2022/06/25 01:18:15;;;;;;;5.28;4.43;;;18.40;99.90;;;;;;5071784;28;20070;-81
2022/06/25 01:20:42;;;;;;;4.53;3.72;;;18.50;99.90;;;;;;5073359;28;20029;-82
2022/06/25 01:23:11;;;;;;;4.55;4.00;;;18.50;99.90;;;;;;5066716;28;20021;-81
2022/06/25 01:25:37;;;;;;;7.35;3.83;;;18.60;99.90;;;;;;5070607;28;20384;-81
2022/06/25 01:28:04;;;;;;;4.35;3.95;;;18.60;99.90;;;;;;5069715;28;20063;-81
2022/06/25 01:30:30;;;;;;;3.88;3.55;;;18.70;99.90;;;;;;5059904;28;20103;-81
2022/06/25 01:32:56;;;;;;;5.57;3.22;;;18.70;99.90;;;;;;5062864;28;20111;-81
2022/06/25 01:35:23;;;;;;;5.45;3.08;;;18.70;99.90;;;;;;5066760;28;20023;-81
2022/06/25 01:37:48;;;;;;;5.57;3.28;;;18.70;99.90;;;;;;5058741;28;20029;-81
2022/06/25 01:40:14;;;;;;;7.80;4.00;;;18.80;99.90;;;;;;5067130;28;20341;-81
2022/06/25 01:42:58;;;;;;;4.05;3.60;;;18.70;99.90;;;;;;5069127;28;20484;-80
2022/06/25 01:45:25;;;;;;;7.43;3.80;;;18.70;99.90;;;;;;5067912;28;20457;-81
2022/06/25 01:47:51;;;;;;;5.13;2.97;;;18.70;99.90;;;;;;5066929;28;20108;-81
2022/06/25 01:50:17;;;;;;;3.78;3.15;;;18.70;99.90;;;;;;5071412;28;20074;-81
2022/06/25 01:52:45;;;;;;;3.63;3.33;;;18.70;99.90;;;;;;5055789;28;20071;-81
2022/06/25 01:55:11;;;;;;;3.28;2.97;;;18.70;99.90;;;;;;5065010;28;20032;-81
2022/06/25 01:57:39;;;;;;;5.05;3.00;;;18.70;99.90;;;;;;5070266;28;20028;-81
2022/06/25 02:00:10;;;;;;;3.83;3.03;;;18.70;99.90;;;;;;5067944;28;20024;-81
2022/06/25 02:02:37;;;;;;;5.22;3.33;;;18.70;99.90;;;;;;5071223;28;20128;-81
2022/06/25 02:05:05;;;;;;;8.05;3.80;;;18.70;99.90;;;;;;5071091;28;20119;-81
2022/06/25 02:07:30;;;;;;;6.40;3.25;;;18.60;99.90;;;;;;5069970;28;20086;-81
2022/06/25 02:09:56;;;;;;;10.90;3.80;;;18.60;99.90;;;;;;5071392;28;20024;-81
2022/06/25 02:12:22;;;;;;;4.25;3.35;;;18.60;99.90;;;;;;5069045;28;20074;-81
2022/06/25 02:14:47;;;;;;;8.80;3.15;;;18.50;99.90;;;;;;5070900;28;20033;-81
2022/06/25 02:17:13;;;;;;;3.45;3.17;;;18.50;99.90;;;;;;5071236;28;20032;-81
2022/06/25 02:19:38;;;;;;;6.43;3.53;;;18.40;99.90;;;;;;5069011;28;20465;-81
2022/06/25 02:22:04;;;;;;;8.15;3.90;;;18.40;99.90;;;;;;5070390;28;20480;-81
2022/06/25 02:24:31;;;;;;;4.95;3.97;;;18.40;99.90;;;;;;5068758;28;20024;-81
2022/06/25 02:26:57;;;;;;;5.20;3.60;;;18.40;99.90;;;;;;5069779;28;20021;-81
2022/06/25 02:29:23;;;;;;;5.65;4.15;;;18.30;99.90;;;;;;5070713;28;20430;-81
2022/06/25 02:31:49;;;;;;;4.78;3.85;;;18.30;99.90;;;;;;5070699;28;20079;-81
2022/06/25 02:34:16;;;;;;;3.58;3.35;;;18.30;99.90;;;;;;5069664;28;20031;-81
2022/06/25 02:36:42;;;;;;;5.28;3.30;;;18.30;99.90;;;;;;5057851;28;20036;-81
2022/06/25 02:39:08;;;;;;;6.03;3.80;;;18.20;99.90;;;;;;5071313;28;20032;-81
2022/06/25 02:41:34;;;;;;;7.43;4.18;;;18.20;99.90;;;;;;5070910;28;20452;-81
2022/06/25 02:43:59;;;;;;;5.65;4.10;;;18.20;99.90;;;;;;5068856;28;20031;-81
2022/06/25 02:46:26;;;;;;;5.22;4.00;;;18.20;99.90;;;;;;5070417;28;20107;-81
2022/06/25 02:48:52;;;;;;;5.95;4.55;;;18.10;99.90;;;;;;5071532;28;20094;-81
2022/06/25 02:51:18;;;;;;;8.77;5.15;;;18.20;99.90;;;;;;5069781;28;20035;-81
2022/06/25 02:53:45;;;;;;;7.60;5.35;;;18.20;99.90;;;;;;5056590;28;20017;-81
2022/06/25 02:58:54;;;;;;;9.13;4.13;;;18.40;99.90;;;;;;5068194;28;20360;-81
2022/06/25 03:01:24;;;;;;;4.70;4.13;;;18.40;99.90;;;;;;5067309;28;20033;-81
2022/06/25 03:03:50;;;;;;;10.45;5.30;;;18.40;99.90;;;;;;5070052;28;20036;-81
2022/06/25 03:06:15;;;;;;;6.90;4.63;;;18.50;99.90;;;;;;5070894;28;20040;-81
2022/06/25 03:08:41;;;;;;;7.78;4.03;;;18.50;99.90;;;;;;5063199;28;20041;-81
2022/06/25 03:11:07;;;;;;;4.75;4.07;;;18.50;99.90;;;;;;5068422;28;20029;-80
2022/06/25 03:13:35;;;;;;;7.00;4.57;;;18.50;99.90;;;;;;5068519;28;20510;-81
2022/06/25 03:16:02;;;;;;;4.38;3.90;;;18.50;99.90;;;;;;5063728;28;20021;-81
2022/06/25 03:18:28;;;;;;;4.78;3.38;;;18.50;99.90;;;;;;5069098;28;20020;-81
2022/06/25 03:20:54;;;;;;;5.50;3.85;;;18.40;99.90;;;;;;5054415;28;20029;-81
2022/06/25 03:23:20;;;;;;;4.57;3.47;;;18.40;99.90;;;;;;5069711;28;20025;-81
2022/06/25 03:25:46;;;;;;;9.43;4.25;;;18.50;99.90;;;;;;5069713;28;20021;-81
2022/06/25 03:28:13;;;;;;;7.90;4.22;;;18.40;99.90;;;;;;5073191;28;20452;-81
2022/06/25 03:30:38;;;;;;;6.05;4.28;;;18.40;99.90;;;;;;5070352;28;20017;-81
2022/06/25 03:33:04;;;;;;;4.43;4.03;;;18.40;99.90;;;;;;5074772;28;20361;-81
2022/06/25 03:35:30;;;;;;;6.18;3.35;;;18.50;99.90;;;;;;5072401;28;20428;-81
2022/06/25 03:37:56;;;;;;;6.25;3.80;;;18.50;99.90;;;;;;5075254;28;20025;-81
2022/06/25 03:40:21;;;;;;;3.60;3.22;;;18.50;99.90;;;;;;5069881;28;20455;-81
2022/06/25 03:42:48;;;;;;;10.80;3.83;;;18.50;99.90;;;;;;5073924;28;20496;-81
2022/06/25 03:45:13;;;;;;;6.35;4.40;;;18.50;99.90;;;;;;5073802;28;20086;-81
2022/06/25 03:47:39;;;;;;;4.95;4.22;;;18.50;99.90;;;;;;5073116;28;20029;-81
2022/06/25 03:50:05;;;;;;;5.30;3.42;;;18.50;99.90;;;;;;5068284;28;20035;-81
2022/06/25 03:52:31;;;;;;;5.75;4.45;;;18.50;99.90;;;;;;5075495;28;20376;-81
2022/06/25 03:54:56;;;;;;;6.65;4.55;;;18.50;99.90;;;;;;5074657;28;20028;-81
2022/06/25 03:57:24;;;;;;;5.07;4.15;;;18.50;99.90;;;;;;5071872;28;20051;-81
2022/06/25 03:59:50;;;;;;;4.97;4.40;;;18.50;99.90;;;;;;5064416;28;20028;-82
2022/06/25 04:02:17;;;;;;;8.38;5.38;;;18.50;99.90;;;;;;5073405;28;20368;-81
2022/06/25 04:04:43;;;;;;;5.85;4.32;;;18.50;99.90;;;;;;5067389;28;20028;-81
2022/06/25 04:07:09;;;;;;;5.97;3.95;;;18.50;99.90;;;;;;5071986;28;20485;-81
2022/06/25 04:09:36;;;;;;;7.07;4.25;;;18.50;99.90;;;;;;5073738;28;20111;-81
2022/06/25 04:12:01;;;;;;;8.02;4.55;;;18.50;99.90;;;;;;5066313;28;20025;-81
2022/06/25 04:14:27;;;;;;;5.90;4.55;;;18.60;99.90;;;;;;5068788;28;20038;-81
2022/06/25 04:16:55;;;;;;;6.63;4.35;;;18.60;99.90;;;;;;5070498;28;20138;-81
2022/06/25 04:19:21;;;;;;;6.78;4.60;;;18.60;99.90;;;;;;5071458;28;20033;-81
2022/06/25 04:21:49;;;;;;;5.68;4.63;;;18.70;99.90;;;;;;5073041;28;20029;-81
2022/06/25 04:24:15;;;;;;;9.40;5.45;;;18.70;99.90;;;;;;5072923;28;20457;-81
2022/06/25 04:26:41;;;;;;;7.10;5.28;;;18.70;99.90;;;;;;5071970;28;20032;-81
2022/06/25 04:29:09;;;;;;;14.60;5.53;;;18.80;99.90;;;;;;5069191;28;20100;-81
2022/06/25 04:31:36;;;;;;;16.85;6.38;;;18.80;99.90;;;;;;5064307;28;20111;-81
2022/06/25 04:34:04;;;;;;;5.78;4.75;;;18.90;99.90;;;;;;5072112;28;20028;-82
2022/06/25 04:36:29;;;;;;;6.85;4.90;;;19.00;99.90;;;;;;5071961;28;20023;-81
2022/06/25 04:38:55;;;;;;;5.07;3.90;;;19.00;99.90;;;;;;5073810;28;20385;-81
2022/06/25 04:41:21;;;;;;;4.97;3.92;;;19.10;99.90;;;;;;5074413;28;20078;-82
2022/06/25 04:43:49;;;;;;;7.22;3.97;;;19.10;99.90;;;;;;5071938;28;20530;-82
2022/06/25 04:46:15;;;;;;;11.57;3.40;;;19.10;99.90;;;;;;5073853;28;20099;-81
2022/06/25 04:48:41;;;;;;;3.28;2.95;;;19.20;99.90;;;;;;5073478;28;20136;-81
2022/06/25 04:51:07;;;;;;;8.93;3.70;;;19.20;99.90;;;;;;5071907;28;20461;-83
2022/06/25 04:53:55;;;;;;;4.00;3.03;;;19.20;99.90;;;;;;5072041;28;20025;-81
2022/06/25 04:56:24;;;;;;;3.85;2.63;;;19.30;99.90;;;;;;5067987;28;20032;-81
2022/06/25 04:58:50;;;;;;;2.80;2.50;;;19.30;99.90;;;;;;5061154;28;20104;-82
2022/06/25 05:01:16;;;;;;;5.55;2.55;;;19.40;99.90;;;;;;5060741;28;20112;-81
2022/06/25 05:03:42;;;;;;;4.65;2.55;;;19.40;99.90;;;;;;5066504;28;20020;-81
2022/06/25 05:06:08;;;;;;;7.72;3.13;;;19.40;99.90;;;;;;5072125;28;20115;-82
2022/06/25 05:08:34;;;;;;;8.32;3.22;;;19.40;99.90;;;;;;5070453;28;20045;-81
2022/06/25 05:11:00;;;;;;;3.47;2.70;;;19.40;99.90;;;;;;5066513;28;20031;-81
2022/06/25 05:13:26;;;;;;;4.57;3.08;;;19.40;99.90;;;;;;5071125;28;20043;-81
2022/06/25 05:15:54;;;;;;;9.52;3.00;;;19.50;99.90;;;;;;5066456;28;20021;-81
2022/06/25 05:18:21;;;;;;;8.20;3.00;;;19.50;99.90;;;;;;5073049;28;20024;-81
2022/06/25 05:20:47;;;;;;;5.05;3.05;;;19.50;99.90;;;;;;5073031;28;20471;-81
2022/06/25 05:23:13;;;;;;;9.45;3.53;;;19.50;99.90;;;;;;5069979;28;20035;-81
2022/06/25 05:25:41;;;;;;;6.32;2.78;;;19.60;99.90;;;;;;5059441;28;20024;-81
2022/06/25 05:28:07;;;;;;;5.72;2.38;;;19.60;99.90;;;;;;5073316;28;20031;-81
2022/06/25 05:30:33;;;;;;;3.63;2.42;;;19.70;99.90;;;;;;5070473;28;20037;-81
2022/06/25 05:33:00;;;;;;;2.92;2.60;;;19.70;99.90;;;;;;5069659;28;20033;-81
2022/06/25 05:35:26;;;;;;;5.10;2.40;;;19.80;99.90;;;;;;5058980;28;20052;-82
2022/06/25 05:37:52;;;;;;;5.95;2.33;;;19.90;99.90;;;;;;5055613;28;20056;-81
2022/06/25 05:40:18;;;;;;;5.60;2.38;;;19.90;99.90;;;;;;5053903;28;20048;-81
2022/06/25 05:42:44;;;;;;;4.25;1.98;;;20.00;99.90;;;;;;5060182;28;20029;-81
2022/06/25 05:45:10;;;;;;;2.80;2.25;;;20.00;99.90;;;;;;5051970;28;20029;-82
2022/06/25 05:47:36;;;;;;;5.50;2.17;;;20.00;99.90;;;;;;5055384;28;20044;-81
2022/06/25 05:50:02;;;;;;;4.30;2.08;;;20.10;99.90;;;;;;5064320;28;20066;-81
2022/06/25 05:52:27;;;;;;;6.03;2.08;;;20.20;99.90;;;;;;5055303;28;20029;-81
2022/06/25 05:54:53;;;;;;;4.32;2.10;;;20.20;99.90;;;;;;5060715;28;20382;-82
2022/06/25 05:57:19;;;;;;;5.32;2.03;;;20.20;99.90;;;;;;5072556;28;20473;-82
2022/06/25 05:59:45;;;;;;;4.38;2.03;;;20.20;99.90;;;;;;5072889;28;20017;-81
2022/06/25 06:02:12;;;;;;;2.10;1.90;;;20.20;99.90;;;;;;5069508;28;20062;-81
2022/06/25 06:04:37;;;;;;;2.70;1.90;;;20.20;99.90;;;;;;5072555;28;20028;-81
2022/06/25 06:07:03;;;;;;;4.00;2.00;;;20.20;99.90;;;;;;5072649;28;20115;-81
2022/06/25 06:09:30;;;;;;;6.03;3.33;;;20.30;99.90;;;;;;5072935;28;20032;-81
2022/06/25 06:11:55;;;;;;;3.75;1.92;;;20.30;99.90;;;;;;5066269;28;20147;-81
2022/06/25 06:14:23;;;;;;;3.13;2.83;;;20.30;99.90;;;;;;5056379;28;20108;-82
2022/06/25 06:16:49;;;;;;;1.92;1.83;;;20.30;99.90;;;;;;5068912;28;20021;-81
2022/06/25 06:19:15;;;;;;;3.45;1.95;;;20.30;99.90;;;;;;5062517;28;20887;-81
2022/06/25 06:21:41;;;;;;;8.32;3.25;;;20.40;99.90;;;;;;5072719;28;20063;-81
2022/06/25 06:24:07;;;;;;;3.50;2.45;;;20.50;99.90;;;;;;5064511;28;20040;-82
2022/06/25 06:26:34;;;;;;;7.00;2.53;;;20.50;99.90;;;;;;5060180;28;20037;-81
2022/06/25 06:29:00;;;;;;;5.95;2.13;;;20.50;99.90;;;;;;5059419;28;20033;-81
2022/06/25 06:31:26;;;;;;;3.08;2.10;;;20.50;99.90;;;;;;5062856;28;20384;-81
2022/06/25 06:33:52;;;;;;;8.82;2.65;;;20.60;99.90;;;;;;5071799;28;20027;-81
2022/06/25 06:36:18;;;;;;;2.08;1.98;;;20.60;99.90;;;;;;5064792;28;20103;-81
2022/06/25 06:38:44;;;;;;;3.50;2.55;;;20.60;99.90;;;;;;5071364;28;20512;-81
2022/06/25 06:41:09;;;;;;;5.45;2.70;;;20.60;99.90;;;;;;5070437;28;20021;-81
2022/06/25 06:43:36;;;;;;;4.07;2.28;;;20.60;99.90;;;;;;5066019;28;20064;-81
2022/06/25 06:46:02;;;;;;;5.65;2.85;;;20.60;99.90;;;;;;5068232;28;20029;-81
2022/06/25 06:48:27;;;;;;;8.90;2.50;;;20.60;99.90;;;;;;5072411;28;20105;-81
2022/06/25 06:50:53;;;;;;;2.90;2.17;;;20.70;99.90;;;;;;5074305;28;20362;-81
2022/06/25 06:53:21;;;;;;;4.95;2.33;;;20.70;99.90;;;;;;5067503;28;20047;-81
2022/06/25 06:55:47;;;;;;;5.03;2.40;;;20.70;99.90;;;;;;5060772;28;20025;-81
2022/06/25 06:58:13;;;;;;;5.75;2.53;;;20.80;99.90;;;;;;5069250;28;20502;-81
2022/06/25 07:00:39;;;;;;;3.40;2.20;;;20.80;99.90;;;;;;5071564;28;20107;-81
2022/06/25 07:03:04;;;;;;;3.10;2.13;;;20.90;99.90;;;;;;5068440;28;20446;-81
2022/06/25 07:05:30;;;;;;;4.35;2.47;;;20.90;99.90;;;;;;5074396;28;20021;-81
2022/06/25 07:07:56;;;;;;;3.47;2.20;;;20.90;99.90;;;;;;5066350;28;20061;-81
2022/06/25 07:10:22;;;;;;;7.32;2.75;;;20.90;99.90;;;;;;5074511;28;20109;-81
2022/06/25 07:12:48;;;;;;;6.03;2.13;;;20.90;99.90;;;;;;5067843;28;20377;-81
2022/06/25 07:15:14;;;;;;;4.13;2.30;;;20.90;99.90;;;;;;5072698;28;20077;-81
2022/06/25 07:17:40;;;;;;;5.75;2.42;;;20.90;99.90;;;;;;5073423;28;20044;-81
2022/06/25 07:20:06;;;;;;;3.40;2.25;;;20.90;99.90;;;;;;5074089;28;20090;-81
2022/06/25 07:22:32;;;;;;;3.08;2.28;;;21.10;99.90;;;;;;5062944;28;20476;-81
2022/06/25 07:24:58;;;;;;;7.00;2.10;;;21.10;99.90;;;;;;5068039;28;20033;-81
2022/06/25 07:27:24;;;;;;;3.58;2.25;;;21.10;99.90;;;;;;5069339;28;20025;-81
2022/06/25 07:29:50;;;;;;;4.85;2.28;;;21.20;99.90;;;;;;5060477;28;20041;-81
2022/06/25 07:32:15;;;;;;;4.35;2.35;;;21.20;99.90;;;;;;5069232;28;20043;-81
2022/06/25 07:34:41;;;;;;;4.63;2.70;;;21.30;99.90;;;;;;5068600;28;20040;-81
2022/06/25 07:37:06;;;;;;;3.60;2.30;;;21.30;99.90;;;;;;5070968;28;20440;-81
2022/06/25 07:39:34;;;;;;;6.38;1.92;;;21.40;99.90;;;;;;5073896;28;20104;-81
2022/06/25 07:41:59;;;;;;;6.57;2.97;;;21.40;99.90;;;;;;5073199;28;20635;-81
2022/06/25 07:44:26;;;;;;;5.85;2.25;;;21.50;99.90;;;;;;5071523;28;20067;-81
2022/06/25 07:46:52;;;;;;;8.55;2.20;;;21.50;99.90;;;;;;5068619;28;20024;-81
2022/06/25 07:49:18;;;;;;;3.17;2.33;;;21.50;99.90;;;;;;5066530;28;20029;-82
2022/06/25 07:52:01;;;;;;;7.72;2.50;;;21.60;99.90;;;;;;5067734;28;20032;-82
2022/06/25 07:54:29;;;;;;;5.00;2.50;;;21.60;99.90;;;;;;5072510;28;20028;-83
2022/06/25 07:56:54;;;;;;;4.13;2.30;;;21.70;99.90;;;;;;5069428;28;20031;-81
2022/06/25 07:59:21;;;;;;;4.28;2.20;;;21.60;99.90;;;;;;5066810;28;20025;-81
2022/06/25 08:01:47;;;;;;;5.75;2.13;;;21.70;99.90;;;;;;5066416;28;20033;-82
2022/06/25 08:04:12;;;;;;;4.95;2.20;;;21.70;99.90;;;;;;5072837;28;20511;-81
2022/06/25 08:06:41;;;;;;;5.57;2.80;;;21.80;99.90;;;;;;5074148;28;20044;-82
2022/06/25 08:09:08;;;;;;;6.60;2.17;;;21.80;99.90;;;;;;5074785;28;20029;-82
2022/06/25 08:11:34;;;;;;;7.85;3.45;;;21.90;99.90;;;;;;5074770;28;20044;-83
2022/06/25 08:14:01;;;;;;;4.82;2.20;;;21.90;99.90;;;;;;5073066;28;20118;-82
2022/06/25 08:16:27;;;;;;;4.35;1.88;;;21.90;99.90;;;;;;5073749;28;20071;-81
2022/06/25 08:18:53;;;;;;;8.30;2.40;;;21.90;99.90;;;;;;5073145;28;20024;-82
2022/06/25 08:21:19;;;;;;;4.78;2.40;;;21.90;99.90;;;;;;5060807;28;20029;-81
2022/06/25 08:23:45;;;;;;;4.05;2.15;;;22.10;99.90;;;;;;5063009;28;20029;-81
2022/06/25 08:26:11;;;;;;;3.67;2.20;;;22.20;99.90;;;;;;5054375;28;20037;-81
2022/06/25 08:28:37;;;;;;;5.05;2.00;;;22.30;99.90;;;;;;5066857;28;20472;-82
2022/06/25 08:31:04;;;;;;;2.97;2.15;;;22.30;99.90;;;;;;5073047;28;20048;-81
2022/06/25 08:33:29;;;;;;;4.55;2.28;;;22.30;99.90;;;;;;5073629;28;20025;-81
2022/06/25 08:35:55;;;;;;;4.40;2.47;;;22.30;99.90;;;;;;5073294;28;20553;-82
2022/06/25 08:38:23;;;;;;;3.55;1.88;;;22.30;99.90;;;;;;5070689;28;20028;-81
2022/06/25 08:40:48;;;;;;;2.65;1.88;;;22.30;99.90;;;;;;5065261;28;20028;-82
2022/06/25 08:43:14;;;;;;;4.30;1.88;;;22.20;99.90;;;;;;5070784;28;20388;-81
2022/06/25 08:45:40;;;;;;;6.22;1.90;;;22.30;99.90;;;;;;5068567;28;20039;-81
2022/06/25 08:48:33;;;;;;;2.97;1.77;;;22.30;99.90;;;;;;5072153;28;20113;-81
2022/06/25 08:50:59;;;;;;;4.68;2.10;;;22.30;99.90;;;;;;5071964;28;20029;-81
2022/06/25 08:53:31;;;;;;;3.47;1.70;;;22.30;99.90;;;;;;5073462;28;20029;-82
2022/06/25 08:55:57;;;;;;;3.17;1.77;;;22.30;99.90;;;;;;5066051;28;20037;-81
2022/06/25 08:58:23;;;;;;;12.73;1.75;;;22.40;99.90;;;;;;5070252;28;20101;-81
2022/06/25 09:00:48;;;;;;;3.22;1.70;;;22.60;99.90;;;;;;5074068;28;20032;-81
2022/06/25 09:03:14;;;;;;;2.55;2.00;;;22.70;99.90;;;;;;5070065;28;20063;-81
2022/06/25 09:05:42;;;;;;;1.90;1.50;;;22.70;99.90;;;;;;5055367;28;20040;-82
2022/06/25 09:08:13;;;;;;;6.75;2.00;;;22.80;99.90;;;;;;5071835;28;20052;-81
2022/06/25 09:10:52;;;;;;;6.93;1.63;;;22.90;99.90;;;;;;5073885;28;20053;-81
2022/06/25 09:13:22;;;;;;;2.45;1.55;;;23.00;99.90;;;;;;5071100;28;20511;-81
2022/06/25 09:15:48;;;;;;;2.42;1.33;;;23.00;99.90;;;;;;5072229;28;20134;-82
2022/06/25 09:18:19;;;;;;;3.47;1.80;;;22.90;99.90;;;;;;5073712;28;20025;-82
2022/06/25 09:21:03;;;;;;;3.97;1.80;;;22.90;99.90;;;;;;5073177;28;20017;-82
2022/06/25 09:23:53;;;;;;;1.85;1.73;;;23.00;99.90;;;;;;5072693;28;20114;-81
2022/06/25 09:26:18;;;;;;;2.30;1.75;;;23.00;99.90;;;;;;5070691;28;20472;-81
2022/06/25 09:28:44;;;;;;;3.88;1.50;;;23.10;99.90;;;;;;5073769;28;20039;-81
2022/06/25 09:31:10;;;;;;;3.20;1.55;;;23.20;99.90;;;;;;5068325;28;20067;-82
2022/06/25 09:33:39;;;;;;;10.60;1.75;;;23.20;99.90;;;;;;5072716;28;20029;-82
2022/06/25 09:36:07;;;;;;;6.00;2.10;;;23.20;99.90;;;;;;5072687;28;20485;-82
2022/06/25 09:38:33;;;;;;;2.40;1.38;;;23.20;99.90;;;;;;5069878;28;20020;-82
2022/06/25 09:41:00;;;;;;;9.00;2.13;;;23.20;99.90;;;;;;5071474;28;20427;-82
2022/06/25 09:43:35;;;;;;;4.10;1.48;;;23.20;99.90;;;;;;5072613;28;20021;-82
2022/06/25 09:46:05;;;;;;;3.95;2.25;;;23.40;99.90;;;;;;5065430;28;20119;-82
2022/06/25 09:48:36;;;;;;;2.72;1.50;;;23.50;99.90;;;;;;5072542;28;20036;-82
2022/06/25 09:51:29;;;;;;;3.08;1.52;;;23.60;99.90;;;;;;5071130;28;20127;-82
2022/06/25 09:53:57;;;;;;;1.83;1.67;;;23.70;99.90;;;;;;5061354;28;20423;-82
2022/06/25 09:56:32;;;;;;;1.58;1.10;;;23.70;99.90;;;;;;5072030;28;20511;-82
2022/06/25 09:58:59;;;;;;;1.70;1.45;;;23.80;99.90;;;;;;5059942;28;20379;-81
2022/06/25 10:01:28;;;;;;;1.30;1.10;;;23.90;99.90;;;;;;5072667;28;20036;-82
2022/06/25 10:03:53;;;;;;;2.28;1.55;;;23.90;99.90;;;;;;5070625;28;20033;-82
2022/06/25 10:06:21;;;;;;;1.88;1.20;;;23.80;99.90;;;;;;5070774;28;20116;-84
2022/06/25 10:08:48;;;;;;;1.38;1.27;;;23.80;99.90;;;;;;5071937;28;20039;-82
2022/06/25 10:11:34;;;;;;;4.63;1.45;;;23.70;99.90;;;;;;5068543;28;20115;-82
2022/06/25 10:14:00;;;;;;;4.97;1.75;;;23.70;99.90;;;;;;5072534;28;20082;-82
2022/06/25 10:16:45;;;;;;;5.60;2.05;;;23.60;99.90;;;;;;5067194;28;20030;-82
2022/06/25 10:19:14;;;;;;;3.17;1.70;;;23.60;99.90;;;;;;5051455;28;20029;-81
2022/06/25 10:21:40;;;;;;;4.15;1.75;;;23.60;99.90;;;;;;5052694;28;20028;-81
2022/06/25 10:24:07;;;;;;;2.42;1.63;;;23.50;99.90;;;;;;5055081;28;20033;-81
2022/06/25 10:26:34;;;;;;;6.07;2.08;;;23.60;99.90;;;;;;5070061;28;20025;-81
2022/06/25 10:29:22;;;;;;;2.58;1.45;;;23.40;99.90;;;;;;5071791;28;20407;-81
2022/06/25 10:31:48;;;;;;;3.92;1.88;;;23.40;99.90;;;;;;5069965;28;20052;-81
2022/06/25 10:34:15;;;;;;;5.10;1.20;;;23.30;99.90;;;;;;5053535;28;20504;-81
2022/06/25 10:36:49;;;;;;;3.78;2.05;;;23.20;99.90;;;;;;5064410;28;20039;-81
2022/06/25 10:39:24;;;;;;;7.43;2.13;;;23.20;99.90;;;;;;5062647;28;20465;-81
2022/06/25 10:45:20;;;;;;;9.52;2.10;;;23.20;99.90;;;;;;5070886;28;20051;-82
2022/06/25 10:47:51;;;;;;;10.23;1.83;;;23.10;99.90;;;;;;5070150;28;20036;-81
2022/06/25 10:50:31;;;;;;;32.13;4.40;;;23.00;99.90;;;;;;5062169;28;20115;-85
2022/06/25 10:53:05;;;;;;;11.13;3.20;;;22.90;99.90;;;;;;5071210;28;20479;-86
2022/06/25 10:55:54;;;;;;;5.97;2.80;;;22.50;99.90;;;;;;5071521;28;20044;-86
2022/06/25 10:58:22;;;;;;;9.88;2.90;;;22.00;99.90;;;;;;5072407;28;20029;-86
2022/06/25 11:01:02;;;;;;;8.13;2.85;;;21.70;99.90;;;;;;5072486;28;20017;-86
2022/06/25 11:03:27;;;;;;;7.28;2.63;;;21.30;99.90;;;;;;5072171;28;20379;-86
2022/06/25 11:05:57;;;;;;;4.78;2.47;;;21.10;99.90;;;;;;5072425;28;20095;-86
2022/06/25 11:08:35;;;;;;;9.43;3.30;;;20.90;99.90;;;;;;5068855;28;20044;-86
2022/06/25 11:11:00;;;;;;;3.83;2.90;;;20.70;99.90;;;;;;5066409;28;20034;-85
2022/06/25 11:13:40;;;;;;;9.00;3.35;;;20.60;99.90;;;;;;5070738;28;20107;-85
2022/06/25 11:16:16;;;;;;;10.73;3.10;;;20.40;99.90;;;;;;5068310;28;20539;-84
2022/06/25 11:18:53;;;;;;;5.47;2.72;;;20.40;99.90;;;;;;5065329;28;20032;-86
2022/06/25 11:21:34;;;;;;;6.20;3.25;;;20.30;99.90;;;;;;5061329;28;20415;-86
2022/06/25 11:24:22;;;;;;;4.90;3.22;;;20.30;99.90;;;;;;5055841;28;20074;-87
2022/06/25 11:29:56;;;;;;;11.18;3.65;;;20.30;99.90;;;;;;5071571;28;20027;-85
2022/06/25 11:32:28;;;;;;;5.28;3.22;;;20.30;99.90;;;;;;5071795;28;20032;-85
2022/06/25 11:34:57;;;;;;;5.60;3.17;;;20.40;99.90;;;;;;5071547;28;20099;-85
2022/06/25 11:37:23;;;;;;;4.22;3.47;;;20.40;99.90;;;;;;5072103;28;20109;-85
2022/06/25 11:39:49;;;;;;;6.75;3.08;;;20.40;99.90;;;;;;5062965;28;20061;-85
2022/06/25 11:42:23;;;;;;;6.20;3.30;;;20.40;99.90;;;;;;5062941;28;20063;-86
2022/06/25 11:44:51;;;;;;;22.02;4.72;;;20.50;99.90;;;;;;5070263;28;20115;-86
2022/06/25 11:47:35;;;;;;;4.93;3.60;;;20.70;99.90;;;;;;5070305;28;20024;-85
2022/06/25 11:50:27;;;;;;;3.72;2.90;;;20.80;99.90;;;;;;5074636;28;20229;-85
2022/06/25 11:52:52;;;;;;;4.10;3.40;;;20.90;99.90;;;;;;5066714;28;20063;-86
2022/06/25 11:55:24;;;;;;;5.93;3.38;;;21.00;99.90;;;;;;5073245;28;20028;-85
2022/06/25 11:57:50;;;;;;;5.53;3.47;;;21.00;99.90;;;;;;5067332;28;20017;-85
2022/06/25 12:00:18;;;;;;;5.85;3.58;;;21.20;99.90;;;;;;5064763;28;20376;-85
2022/06/25 12:02:43;;;;;;;6.03;3.00;;;21.20;99.90;;;;;;5073160;28;20063;-85
2022/06/25 12:05:11;;;;;;;3.30;2.60;;;21.30;99.90;;;;;;5072598;28;20426;-85
2022/06/25 12:07:44;;;;;;;3.08;2.65;;;21.30;99.90;;;;;;5074901;28;20127;-85
2022/06/25 12:10:12;;;;;;;7.45;3.22;;;21.30;99.90;;;;;;5075208;28;20480;-85
2022/06/25 12:12:40;;;;;;;4.05;3.03;;;21.30;99.90;;;;;;5074960;28;20025;-85
2022/06/25 12:15:08;;;;;;;5.47;3.58;;;21.30;99.90;;;;;;5075139;28;20063;-85
2022/06/25 12:17:38;;;;;;;2.92;2.20;;;21.40;99.90;;;;;;5074907;28;20469;-84
2022/06/25 12:20:08;;;;;;;2.20;2.10;;;21.30;99.90;;;;;;5074972;28;20016;-84
2022/06/25 12:22:38;;;;;;;4.10;2.45;;;21.30;99.90;;;;;;5073743;28;20406;-84
2022/06/25 12:25:04;;;;;;;3.10;2.80;;;21.30;99.90;;;;;;5074618;28;20020;-85
2022/06/25 12:27:46;;;;;;;5.63;2.78;;;21.30;99.90;;;;;;5074655;28;20108;-84
2022/06/25 12:30:12;;;;;;;3.15;2.88;;;21.40;99.90;;;;;;5074223;28;20024;-84
2022/06/25 12:32:42;;;;;;;3.20;2.90;;;21.50;99.90;;;;;;5074340;28;20079;-84
2022/06/25 12:35:30;;;;;;;5.43;2.97;;;21.50;99.90;;;;;;5061669;28;20029;-84
2022/06/25 12:38:14;;;;;;;4.82;2.63;;;21.60;99.90;;;;;;5054732;28;20096;-84
2022/06/25 12:40:48;;;;;;;2.63;2.15;;;21.70;99.90;;;;;;5054091;28;20028;-86
2022/06/25 12:43:48;;;;;;;3.45;2.03;;;21.70;99.90;;;;;;5054477;28;20381;-86
2022/06/25 12:46:18;;;;;;;2.00;1.90;;;21.70;99.90;;;;;;5054504;28;20059;-86
2022/06/25 12:48:46;;;;;;;2.00;1.90;;;21.80;99.90;;;;;;5065002;28;20032;-86
2022/06/25 12:51:14;;;;;;;3.00;2.00;;;21.80;99.90;;;;;;5073195;28;20021;-86
2022/06/25 12:53:42;;;;;;;2.05;1.70;;;21.90;99.90;;;;;;5074224;28;20027;-85
2022/06/25 12:56:11;;;;;;;2.40;1.60;;;22.10;99.90;;;;;;5072655;28;20388;-85
2022/06/25 12:58:39;;;;;;;2.45;1.65;;;22.30;99.90;;;;;;5072900;28;20545;-84
2022/06/25 13:01:27;;;;;;;3.38;1.73;;;22.40;99.90;;;;;;5068969;28;20477;-84
2022/06/25 13:03:53;;;;;;;2.50;1.65;;;22.50;99.90;;;;;;5054087;28;20040;-84
2022/06/25 13:06:22;;;;;;;1.98;1.58;;;22.60;99.90;;;;;;5053584;28;20036;-84